createdAt,value
2023-05-07T00:04:14.488Z,5.5
2023-05-07T00:09:52.387Z,5.4
2023-05-07T00:15:28.977Z,5.4
2023-05-07T00:21:07.773Z,5.4
2023-05-07T00:26:44.069Z,5.3
2023-05-07T00:32:36.355Z,5.3
2023-05-07T00:38:28.874Z,5.1
2023-05-07T00:44:21.309Z,5.1
2023-05-07T00:49:58.221Z,5
2023-05-07T00:55:49.693Z,4.9
2023-05-07T01:01:43.285Z,4.9
2023-05-07T01:07:41.562Z,4.9
2023-05-07T01:13:18.982Z,4.9
2023-05-07T01:19:10.895Z,4.8
2023-05-07T01:25:03.222Z,4.7
2023-05-07T01:30:55.008Z,4.7
2023-05-07T01:36:47.461Z,4.6
2023-05-07T01:42:39.645Z,4.6
2023-05-07T01:48:31.952Z,4.6
2023-05-07T01:54:24.818Z,4.5
2023-05-07T02:00:15.860Z,4.4
2023-05-07T02:06:09.760Z,4.4
2023-05-07T02:12:00.861Z,4.4
2023-05-07T02:17:53.697Z,4.3
2023-05-07T02:23:48.434Z,4.3
2023-05-07T02:29:40.724Z,4.1
2023-05-07T02:35:32.462Z,4.1
2023-05-07T02:41:24.358Z,3.9
2023-05-07T02:47:16.586Z,3.9
2023-05-07T02:53:10.225Z,3.8
2023-05-07T02:59:02.964Z,3.7
2023-05-07T03:04:56.934Z,3.6
2023-05-07T03:10:48.391Z,3.6
2023-05-07T03:16:40.658Z,3.5
2023-05-07T03:22:33.784Z,3.6
2023-05-07T03:28:27.491Z,3.7
2023-05-07T03:34:19.728Z,3.8
2023-05-07T03:40:12.309Z,3.9
2023-05-07T03:46:05.121Z,4.1
2023-05-07T03:51:57.360Z,4.3
2023-05-07T03:57:49.959Z,4.6
2023-05-07T04:03:42.564Z,4.8
2023-05-07T04:09:35.820Z,5.1
2023-05-07T04:15:27.998Z,5.4
2023-05-07T04:21:20.289Z,5.8
2023-05-07T04:27:12.477Z,6.3
2023-05-07T04:33:05.147Z,7.2
2023-05-07T04:38:56.587Z,8.8
2023-05-07T04:44:49.357Z,10.3
2023-05-07T04:50:42.171Z,12
2023-05-07T04:56:33.806Z,14
2023-05-07T05:02:27.053Z,15.8
2023-05-07T05:08:19.670Z,17.8
2023-05-07T05:14:11.506Z,19.9
2023-05-07T05:20:04.610Z,22.3
2023-05-07T05:25:56.189Z,24.8
2023-05-07T05:31:49.369Z,27.4
2023-05-07T05:37:41.572Z,30.1
2023-05-07T05:43:33.846Z,33.2
2023-05-07T05:49:12.482Z,36
2023-05-07T05:55:05.580Z,39.2
2023-05-07T06:00:57.644Z,42.1
2023-05-07T06:06:49.827Z,45.4
2023-05-07T06:12:41.766Z,48.4
2023-05-07T06:18:34.731Z,51.6
2023-05-07T06:24:27.937Z,54.4
2023-05-07T06:30:19.432Z,57.6
2023-05-07T06:36:12.630Z,60.4
2023-05-07T06:42:04.212Z,63.1
2023-05-07T06:47:56.780Z,63.3
2023-05-07T06:53:34.294Z,53.1
2023-05-07T06:59:26.979Z,55.6
2023-05-07T07:05:20.603Z,61.6
2023-05-07T07:11:12.621Z,62.6
2023-05-07T07:17:05.313Z,54.1
2023-05-07T07:22:58.758Z,58.9
2023-05-07T07:28:52.769Z,67.4
2023-05-07T07:34:46.560Z,58.9
2023-05-07T07:40:49.801Z,55.8
2023-05-07T07:46:43.878Z,66.2
2023-05-07T07:52:53.864Z,62.9
2023-05-07T07:58:52.061Z,58.4
2023-05-07T08:10:30.123Z,59.6
2023-05-07T08:16:24.702Z,60.4
2023-05-07T08:22:18.959Z,61.4
2023-05-07T08:28:13.686Z,62.3
2023-05-07T08:34:10.142Z,62.8
2023-05-07T08:40:05.568Z,63.4
2023-05-07T08:46:00.559Z,64.5
2023-05-07T08:51:55.461Z,64.6
2023-05-07T08:57:50.984Z,65.4
2023-05-07T09:03:45.213Z,66.1
2023-05-07T09:09:27.442Z,66.3
2023-05-07T09:15:21.780Z,66.5
2023-05-07T09:21:02.499Z,66.9
2023-05-07T09:27:00.517Z,67.9
2023-05-07T09:32:56.147Z,68.4
2023-05-07T09:38:54.424Z,68.8
2023-05-07T09:44:48.026Z,69.6
2023-05-07T09:50:42.629Z,70.5
2023-05-07T09:56:38.475Z,70.3
2023-05-07T10:02:35.608Z,70.6
2023-05-07T10:08:29.470Z,72
2023-05-07T10:14:23.736Z,70.3
2023-05-07T10:20:21.115Z,70.4
2023-05-07T10:26:17.832Z,71.5
2023-05-07T10:32:13.102Z,70.3
2023-05-07T10:38:08.821Z,71.5
2023-05-07T10:43:47.981Z,71.5
2023-05-07T10:49:59.173Z,71.8
2023-05-07T10:55:40.563Z,71.8
2023-05-07T11:01:51.613Z,71.4
2023-05-07T11:07:46.688Z,71.4
2023-05-07T11:13:41.299Z,71.3
2023-05-07T11:19:39.079Z,71.1
2023-05-07T11:25:35.657Z,71.4
2023-05-07T11:31:30.392Z,70.9
2023-05-07T11:37:09.609Z,71.3
2023-05-07T11:43:08.558Z,70.9
2023-05-07T11:49:03.478Z,70.7
2023-05-07T11:54:59.576Z,70.4
2023-05-07T12:00:53.426Z,70.3
2023-05-07T12:06:49.178Z,70.5
2023-05-07T12:12:30.653Z,70.6
2023-05-07T12:18:10.919Z,70.5
2023-05-07T12:23:49.176Z,70.1
2023-05-07T12:29:13.743Z,69.6
2023-05-07T12:35:07.514Z,69.1
2023-05-07T12:41:01.056Z,69
2023-05-07T12:46:41.999Z,68.7
2023-05-07T12:52:20.793Z,67.7
2023-05-07T12:57:58.617Z,69.3
2023-05-07T13:03:38.710Z,73.3
2023-05-07T13:09:17.173Z,74.6
2023-05-07T13:14:57.778Z,65.6
2023-05-07T13:20:54.232Z,66.1
2023-05-07T13:26:45.831Z,64.4
2023-05-07T13:32:55.230Z,64.4
2023-05-07T13:38:49.193Z,65.8
2023-05-07T13:44:42.520Z,67.3
2023-05-07T13:50:34.602Z,68
2023-05-07T13:56:12.147Z,67.8
2023-05-07T14:02:04.569Z,66.9
2023-05-07T14:07:57.734Z,66.3
2023-05-07T14:13:53.322Z,65.1
2023-05-07T14:19:48.275Z,64.1
2023-05-07T14:25:57.409Z,63.1
2023-05-07T14:31:49.893Z,62.1
2023-05-07T14:37:41.695Z,59.4
2023-05-07T14:43:34.550Z,57.2
2023-05-07T14:49:26.831Z,55.1
2023-05-07T14:55:18.303Z,53.2
2023-05-07T15:01:12.903Z,50.8
2023-05-07T15:07:09.381Z,48.5
2023-05-07T15:13:00.820Z,46.9
2023-05-07T15:18:56.869Z,45
2023-05-07T15:24:48.577Z,43.1
2023-05-07T15:30:41.832Z,41.7
2023-05-07T15:36:34.564Z,40.3
2023-05-07T15:42:26.439Z,39.4
2023-05-07T15:48:18.078Z,38.1
2023-05-07T15:54:10.778Z,36.9
2023-05-07T16:00:03.088Z,35.9
2023-05-07T16:05:57.186Z,34.8
2023-05-07T16:11:50.194Z,33.8
2023-05-07T16:17:45.015Z,32.8
2023-05-07T16:23:36.760Z,31.8
2023-05-07T16:29:28.786Z,30.8
2023-05-07T16:35:22.324Z,29.9
2023-05-07T16:41:13.121Z,29.1
2023-05-07T16:47:08.462Z,28.4
2023-05-07T16:52:45.066Z,27.6
2023-05-07T16:58:21.906Z,26.8
2023-05-07T17:04:31.484Z,25.8
2023-05-07T17:10:25.168Z,24.8
2023-05-07T17:16:16.824Z,23.9
2023-05-07T17:22:09.104Z,23.2
2023-05-07T17:28:00.418Z,22.5
2023-05-07T17:34:09.649Z,21.8
2023-05-07T17:45:37.047Z,20.5
2023-05-07T17:51:31.844Z,19.9
2023-05-07T17:57:29.889Z,19.4
2023-05-07T18:03:19.619Z,19.1
2023-05-07T18:14:47.553Z,18.4
2023-05-07T18:20:42.253Z,18.2
2023-05-07T18:26:33.068Z,18
2023-05-07T18:32:28.433Z,17.8
2023-05-07T18:38:05.016Z,17.6
2023-05-07T18:43:56.896Z,17.4
2023-05-07T18:49:49.493Z,17.3
2023-05-07T18:55:26.048Z,17.1
2023-05-07T19:01:16.520Z,16.9
2023-05-07T19:07:09.257Z,16.8
2023-05-07T19:13:12.938Z,16.5
2023-05-07T19:19:07.982Z,16.4
2023-05-07T19:25:00.403Z,16.2
2023-05-07T19:31:13.126Z,16
2023-05-07T19:37:06.175Z,15.8
2023-05-07T19:42:43.990Z,15.7
2023-05-07T19:48:36.719Z,15.6
2023-05-07T19:54:30.858Z,15.4
2023-05-07T20:00:25.936Z,15.2
2023-05-07T20:06:20.108Z,15
2023-05-07T20:11:58.222Z,14.9
2023-05-07T20:17:37.804Z,14.7
2023-05-07T20:23:31.461Z,14.5
2023-05-07T20:29:07.588Z,14.4
2023-05-07T20:35:00.010Z,14.3
2023-05-07T20:40:52.125Z,14.1
2023-05-07T20:46:46.750Z,14
2023-05-07T20:52:39.213Z,13.9
2023-05-07T20:58:33.824Z,13.8
2023-05-07T21:04:26.740Z,13.6
2023-05-07T21:10:18.588Z,13.5
2023-05-07T21:16:10.508Z,13.4
2023-05-07T21:22:02.820Z,13.3
2023-05-07T21:27:54.367Z,13.2
2023-05-07T21:33:31.790Z,13.1
2023-05-07T21:39:23.697Z,12.9
2023-05-07T21:45:16.060Z,12.9
2023-05-07T21:51:08.067Z,12.8
2023-05-07T21:56:59.012Z,12.8
2023-05-07T22:03:07.452Z,12.6
2023-05-07T22:08:59.681Z,12.6
2023-05-07T22:14:52.926Z,12.6
2023-05-07T22:20:56.119Z,12.6
2023-05-07T22:26:49.044Z,12.5
2023-05-07T22:32:28.253Z,12.4
2023-05-07T22:38:20.247Z,12.4
2023-05-07T22:44:12.516Z,12.3
2023-05-07T22:50:05.278Z,12.2
2023-05-07T22:55:57.130Z,12.1
2023-05-07T23:01:48.941Z,11.9
2023-05-07T23:07:40.744Z,11.8
2023-05-07T23:13:32.653Z,11.6
2023-05-07T23:19:27.310Z,11.4
2023-05-07T23:25:19.030Z,11.1
2023-05-07T23:31:11.108Z,10.9
2023-05-07T23:37:03.143Z,10.6
2023-05-07T23:42:54.162Z,10.4
2023-05-07T23:48:45.030Z,10.2
2023-05-07T23:54:36.361Z,10
